Time;durP1;ratioP1;P1;durP2;ratioP2;P2;SDS_P1;SDS_P2;PMS_P1;PMS_P2;Temp;Humidity;BMP_temperature;BMP_pressure;BME280_temperature;BME280_humidity;BME280_pressure;Samples;Min_cycle;Max_cycle;Signal;HPM_P1;HPM_P2
2022/01/15 00:00:18;;;;;;;9.95;6.03;;;;;;;8.67;49.87;100421.78;4459743;32;33881;-71
2022/01/15 00:02:46;;;;;;;7.75;3.70;;;;;;;8.82;49.75;100428.03;4471685;32;32608;-70
2022/01/15 00:05:14;;;;;;;9.25;5.18;;;;;;;8.88;49.45;100424.19;4464980;32;34607;-68
2022/01/15 00:07:47;;;;;;;7.62;4.45;;;;;;;8.87;49.69;100431.31;4463797;32;33973;-71
2022/01/15 00:10:16;;;;;;;6.20;4.28;;;;;;;8.89;49.62;100421.41;4464279;32;33835;-70
2022/01/15 00:12:44;;;;;;;8.88;5.95;;;;;;;8.45;50.34;100427.44;4464873;32;33729;-69
2022/01/15 00:15:23;;;;;;;8.70;3.87;;;;;;;8.25;50.94;100424.94;4465696;32;34358;-70
2022/01/15 00:17:57;;;;;;;3.90;2.25;;;;;;;8.44;50.43;100438.19;4465674;32;35096;-70
2022/01/15 00:20:26;;;;;;;5.82;3.25;;;;;;;8.30;51.20;100436.25;4465014;32;32528;-70
2022/01/15 00:22:56;;;;;;;4.28;2.97;;;;;;;8.32;51.83;100434.38;4456453;32;33701;-69
2022/01/15 00:25:25;;;;;;;9.38;4.32;;;;;;;7.88;52.30;100432.28;4447767;32;33332;-71
2022/01/15 00:27:53;;;;;;;6.53;4.20;;;;;;;7.66;52.95;100446.69;4460505;32;33431;-69
2022/01/15 00:30:21;;;;;;;13.68;4.37;;;;;;;7.68;53.08;100447.50;4459227;32;34017;-72
2022/01/15 00:32:49;;;;;;;6.93;3.75;;;;;;;7.68;53.13;100452.81;4456412;32;35191;-70
2022/01/15 00:35:17;;;;;;;7.05;4.60;;;;;;;8.09;52.72;100452.47;4461047;32;34951;-71
2022/01/15 00:37:46;;;;;;;6.65;3.97;;;;;;;7.40;53.84;100456.03;4459264;32;33959;-68
2022/01/15 00:40:16;;;;;;;5.95;3.83;;;;;;;7.40;55.08;100452.50;4459917;32;34108;-71
2022/01/15 00:42:45;;;;;;;6.82;4.15;;;;;;;7.32;54.59;100452.91;4459550;32;33888;-69
2022/01/15 00:45:18;;;;;;;7.57;3.92;;;;;;;7.04;54.65;100448.06;4461203;32;33575;-69
2022/01/15 00:47:46;;;;;;;6.25;2.92;;;;;;;7.18;56.16;100450.91;4460629;32;33986;-72
2022/01/15 00:50:14;;;;;;;5.10;3.17;;;;;;;6.95;55.06;100457.34;4462259;32;32967;-73
2022/01/15 00:52:42;;;;;;;5.85;2.83;;;;;;;7.26;54.80;100461.19;4462966;32;34905;-73
2022/01/15 00:55:11;;;;;;;8.90;2.53;;;;;;;7.59;54.36;100465.75;4463385;32;32097;-72
2022/01/15 00:57:40;;;;;;;6.62;3.87;;;;;;;8.01;52.14;100462.66;4461202;32;34920;-70
2022/01/15 01:00:10;;;;;;;4.32;3.35;;;;;;;7.04;55.72;100480.00;4462410;32;33666;-72
2022/01/15 01:02:38;;;;;;;7.30;3.47;;;;;;;7.51;54.34;100471.44;4465651;32;32999;-71
2022/01/15 01:05:07;;;;;;;4.82;3.45;;;;;;;7.33;54.30;100470.59;4460267;32;33405;-70
2022/01/15 01:07:34;;;;;;;5.78;2.87;;;;;;;7.49;54.29;100481.34;4464736;32;33671;-68
2022/01/15 01:10:18;;;;;;;4.03;2.40;;;;;;;7.69;54.06;100490.97;4463010;32;33705;-70
2022/01/15 01:23:32;;;;;;;8.02;3.97;;;;;;;8.12;52.50;100505.63;4464957;32;34286;-71
2022/01/15 01:26:50;;;;;;;7.32;2.97;;;;;;;7.91;52.85;100498.75;4466069;32;33322;-72
2022/01/15 01:28:56;;;;;;;2.80;1.60;;;;;;;7.89;53.21;100505.94;4459817;32;33567;-70
2022/01/15 01:31:33;;;;;;;3.33;2.15;;;;;;;7.70;53.93;100498.91;4463166;32;34051;-71
2022/01/15 01:34:07;;;;;;;4.97;3.17;;;;;;;7.39;55.09;100501.41;4460784;32;35244;-69
2022/01/15 01:36:55;;;;;;;7.25;4.47;;;;;;;7.39;53.97;100512.03;4464034;32;33487;-70
2022/01/15 01:39:25;;;;;;;4.57;2.97;;;;;;;7.85;53.12;100523.91;4466659;32;35004;-67
2022/01/15 01:42:08;;;;;;;5.57;3.92;;;;;;;7.84;54.09;100508.88;4466548;32;34228;-68
2022/01/15 01:44:40;;;;;;;4.55;3.05;;;;;;;7.69;53.41;100499.84;4469832;32;33515;-67
2022/01/15 01:47:39;;;;;;;5.97;2.85;;;;;;;8.08;52.07;100493.38;4466234;32;33155;-69
2022/01/15 01:49:57;;;;;;;4.32;3.12;;;;;;;7.57;54.34;100496.94;4468400;32;34185;-68
2022/01/15 01:52:26;;;;;;;3.00;2.25;;;;;;;7.69;53.39;100496.31;4463164;32;34259;-68
2022/01/15 01:54:53;;;;;;;6.15;3.42;;;;;;;7.42;54.43;100488.78;4464771;32;32492;-68
2022/01/15 01:57:21;;;;;;;9.23;4.87;;;;;;;7.26;54.85;100471.00;4465248;32;33141;-71
2022/01/15 01:59:49;;;;;;;3.05;2.20;;;;;;;7.14;54.71;100467.13;4459989;32;33625;-71
2022/01/15 02:02:17;;;;;;;13.02;5.43;;;;;;;7.38;54.38;100471.25;4462027;32;35062;-69
2022/01/15 02:04:45;;;;;;;6.55;4.07;;;;;;;7.86;52.60;100471.47;4466667;32;33863;-68
2022/01/15 02:07:13;;;;;;;9.20;4.95;;;;;;;6.95;55.75;100488.44;4460579;32;34383;-69
2022/01/15 02:09:41;;;;;;;5.85;2.87;;;;;;;7.19;54.88;100481.03;4459867;32;33827;-69
2022/01/15 02:12:09;;;;;;;4.75;2.33;;;;;;;7.53;54.08;100480.25;4466915;32;33850;-69
2022/01/15 02:14:36;;;;;;;4.15;2.78;;;;;;;7.78;52.69;100477.19;4463609;32;33527;-69
2022/01/15 02:17:04;;;;;;;10.07;5.93;;;;;;;7.97;52.59;100487.78;4463613;32;33565;-67
2022/01/15 02:19:34;;;;;;;4.37;3.17;;;;;;;8.07;51.86;100489.00;4468375;32;33623;-68
2022/01/15 02:24:48;;;;;;;8.75;4.70;;;;;;;8.14;51.54;100503.72;4454050;32;32491;-70
2022/01/15 02:27:16;;;;;;;4.28;3.45;;;;;;;8.14;51.64;100497.53;4463245;32;33563;-70
2022/01/15 02:29:43;;;;;;;6.03;3.90;;;;;;;8.29;51.00;100495.88;4465011;32;33533;-70
2022/01/15 02:32:11;;;;;;;5.62;3.67;;;;;;;7.95;52.21;100494.97;4463256;32;33701;-68
2022/01/15 02:34:39;;;;;;;4.45;3.70;;;;;;;8.36;50.91;100497.25;4460074;32;33654;-69
2022/01/15 02:37:07;;;;;;;5.57;3.75;;;;;;;8.62;49.56;100496.75;4464812;32;34848;-67
2022/01/15 02:39:35;;;;;;;4.65;3.60;;;;;;;8.81;49.59;100501.06;4461310;32;34747;-70
2022/01/15 02:42:03;;;;;;;5.32;3.60;;;;;;;8.82;48.52;100500.97;4465300;32;32676;-70
2022/01/15 02:44:37;;;;;;;4.40;3.15;;;;;;;8.60;49.12;100497.75;4458891;32;33722;-69
2022/01/15 02:49:33;;;;;;;7.18;4.85;;;;;;;8.91;48.35;100496.09;4465781;32;34194;-69
2022/01/15 02:52:00;;;;;;;6.65;4.32;;;;;;;9.27;47.18;100493.12;4471683;32;33673;-69
2022/01/15 02:54:29;;;;;;;5.50;3.78;;;;;;;9.57;45.86;100495.84;4463065;32;33622;-70
2022/01/15 02:56:56;;;;;;;7.80;3.65;;;;;;;9.38;46.61;100490.72;4470054;32;33528;-67
2022/01/15 02:59:27;;;;;;;4.55;3.70;;;;;;;9.67;45.73;100485.47;4465759;32;33823;-69
2022/01/15 03:01:55;;;;;;;5.65;3.87;;;;;;;9.66;46.08;100487.28;4469152;32;33937;-70
2022/01/15 03:04:22;;;;;;;6.10;2.75;;;;;;;9.59;45.65;100479.72;4465254;32;33247;-69
2022/01/15 03:06:50;;;;;;;11.98;4.15;;;;;;;9.70;45.80;100482.62;4463469;32;33100;-68
2022/01/15 03:09:17;;;;;;;9.27;5.78;;;;;;;9.35;46.46;100477.53;4464270;32;34985;-66
2022/01/15 03:11:45;;;;;;;8.68;4.72;;;;;;;9.61;45.62;100469.81;4469469;32;34013;-66
2022/01/15 03:14:14;;;;;;;5.53;3.53;;;;;;;9.38;46.64;100468.47;4463838;32;35572;-66
2022/01/15 03:16:41;;;;;;;6.45;3.10;;;;;;;9.45;46.67;100462.69;4462825;32;32190;-67
2022/01/15 03:19:10;;;;;;;10.02;5.70;;;;;;;9.28;46.73;100460.16;4463564;32;33850;-66
2022/01/15 03:21:38;;;;;;;8.27;5.05;;;;;;;9.31;46.53;100452.81;4463244;32;34289;-66
2022/01/15 03:24:05;;;;;;;7.93;5.47;;;;;;;9.02;47.42;100465.16;4463691;32;33928;-66
2022/01/15 03:26:33;;;;;;;6.30;4.90;;;;;;;8.46;49.25;100460.31;4468843;31;34528;-67
2022/01/15 03:29:01;;;;;;;5.43;4.25;;;;;;;8.38;49.90;100455.41;4465511;32;32994;-65
2022/01/15 03:31:29;;;;;;;6.25;4.43;;;;;;;8.59;48.60;100466.69;4459041;32;33977;-67
2022/01/15 03:33:57;;;;;;;6.43;3.75;;;;;;;8.35;49.02;100467.06;4462654;32;34975;-65
2022/01/15 03:36:24;;;;;;;10.23;4.95;;;;;;;7.91;50.22;100461.44;4463787;32;34258;-67
2022/01/15 03:38:52;;;;;;;5.93;4.68;;;;;;;8.63;48.79;100473.59;4468335;32;32712;-65
2022/01/15 03:41:19;;;;;;;7.75;4.03;;;;;;;8.29;50.09;100472.72;4461764;32;35291;-67
2022/01/15 03:43:47;;;;;;;4.85;3.55;;;;;;;8.36;50.14;100473.25;4463752;32;35239;-68
2022/01/15 03:46:15;;;;;;;4.82;3.42;;;;;;;7.96;51.81;100472.72;4464843;32;32901;-65
2022/01/15 03:48:42;;;;;;;6.12;4.47;;;;;;;8.00;50.87;100476.94;4464864;32;33556;-65
2022/01/15 03:51:10;;;;;;;8.60;4.53;;;;;;;8.58;48.48;100481.84;4464478;32;33752;-66
2022/01/15 03:53:38;;;;;;;6.40;4.10;;;;;;;8.74;47.66;100478.34;4461681;32;35164;-66
2022/01/15 03:56:05;;;;;;;5.03;3.65;;;;;;;8.69;47.96;100483.06;4462218;32;33113;-66
2022/01/15 03:58:33;;;;;;;6.95;4.78;;;;;;;9.04;46.99;100495.31;4463481;32;33812;-66
2022/01/15 04:01:01;;;;;;;4.70;3.37;;;;;;;9.08;46.64;100493.31;4463424;32;35258;-65
2022/01/15 04:03:29;;;;;;;8.63;5.10;;;;;;;9.09;47.04;100498.59;4459385;32;34239;-65
2022/01/15 04:05:56;;;;;;;10.23;3.80;;;;;;;9.21;46.61;100507.72;4463598;32;32500;-67
2022/01/15 04:08:24;;;;;;;4.87;2.97;;;;;;;9.48;45.92;100518.63;4463210;32;33841;-66
2022/01/15 04:10:52;;;;;;;7.35;5.30;;;;;;;9.55;45.69;100522.66;4464595;32;33754;-67
2022/01/15 04:13:19;;;;;;;7.37;4.50;;;;;;;9.55;45.63;100527.12;4463370;32;33801;-65
2022/01/15 04:15:53;;;;;;;7.72;4.53;;;;;;;9.73;45.16;100526.06;4462632;32;33340;-66
2022/01/15 04:18:22;;;;;;;4.95;3.65;;;;;;;9.81;44.99;100530.94;4464682;32;33652;-68
2022/01/15 04:20:51;;;;;;;7.90;4.55;;;;;;;9.89;45.19;100526.03;4462877;32;35767;-67
2022/01/15 04:23:19;;;;;;;6.28;4.50;;;;;;;9.89;44.75;100527.84;4460787;32;35020;-66
2022/01/15 04:25:46;;;;;;;7.12;3.67;;;;;;;9.87;44.52;100522.56;4463263;32;34551;-67
2022/01/15 04:28:14;;;;;;;6.55;4.22;;;;;;;9.99;44.44;100529.88;4463046;32;33617;-67
2022/01/15 04:30:46;;;;;;;6.70;5.03;;;;;;;10.14;43.82;100530.75;4464019;32;35196;-67
2022/01/15 04:33:14;;;;;;;8.70;5.20;;;;;;;9.76;44.40;100535.72;4463404;32;34625;-67
2022/01/15 04:35:42;;;;;;;5.60;3.08;;;;;;;10.07;43.77;100536.56;4463387;32;33272;-66
2022/01/15 04:38:13;;;;;;;9.57;4.20;;;;;;;10.22;43.21;100543.66;4464035;32;33785;-68
2022/01/15 04:40:40;;;;;;;6.22;3.78;;;;;;;10.20;43.42;100541.06;4464232;32;34031;-68
2022/01/15 04:43:08;;;;;;;8.30;4.45;;;;;;;9.89;44.05;100543.88;4461990;32;34834;-65
2022/01/15 04:45:35;;;;;;;5.55;3.62;;;;;;;9.82;44.54;100540.69;4465207;32;33118;-66
2022/01/15 04:48:03;;;;;;;6.82;3.90;;;;;;;9.95;43.73;100541.72;4464483;32;33819;-67
2022/01/15 04:50:31;;;;;;;5.47;4.47;;;;;;;9.53;45.05;100548.63;4458749;32;33915;-66
2022/01/15 04:52:58;;;;;;;5.62;4.10;;;;;;;9.43;45.13;100546.53;4460137;32;35276;-68
2022/01/15 04:55:26;;;;;;;8.60;4.65;;;;;;;9.15;46.33;100552.56;4460259;32;33152;-67
2022/01/15 04:57:54;;;;;;;6.93;5.47;;;;;;;9.43;46.10;100547.41;4460794;32;32379;-70
2022/01/15 05:00:21;;;;;;;7.72;5.20;;;;;;;9.27;45.96;100547.41;4463463;32;33801;-68
2022/01/15 05:02:49;;;;;;;7.90;5.18;;;;;;;8.93;47.54;100543.13;4463113;32;33880;-68
2022/01/15 05:05:17;;;;;;;8.75;3.17;;;;;;;9.22;47.20;100543.31;4464518;32;33182;-68
2022/01/15 05:07:45;;;;;;;7.40;5.45;;;;;;;9.55;46.05;100543.16;4461784;32;35236;-68
2022/01/15 05:10:16;;;;;;;9.13;5.35;;;;;;;9.57;45.83;100535.94;4463060;32;33785;-67
2022/01/15 05:12:46;;;;;;;5.82;4.25;;;;;;;9.38;46.08;100538.81;4460699;32;34007;-68
2022/01/15 05:15:16;;;;;;;7.82;4.00;;;;;;;9.61;45.99;100541.97;4463852;32;35021;-68
2022/01/15 05:17:45;;;;;;;6.03;4.10;;;;;;;9.52;46.87;100551.38;4463108;32;35243;-67
2022/01/15 05:20:17;;;;;;;8.77;5.35;;;;;;;9.75;45.54;100555.37;4462131;32;33731;-66
2022/01/15 05:22:46;;;;;;;8.60;5.10;;;;;;;9.55;46.25;100553.88;4463068;32;33706;-66
2022/01/15 05:25:16;;;;;;;7.80;4.75;;;;;;;9.38;47.06;100546.81;4461635;32;33447;-66
2022/01/15 05:27:46;;;;;;;9.20;4.47;;;;;;;9.83;45.95;100538.91;4462586;32;32881;-67
2022/01/15 05:30:13;;;;;;;7.95;4.80;;;;;;;9.49;46.14;100546.19;4461675;32;33905;-67
2022/01/15 05:32:41;;;;;;;5.50;3.25;;;;;;;8.99;47.68;100532.09;4463497;32;33778;-67
2022/01/15 05:35:10;;;;;;;6.03;3.00;;;;;;;8.35;49.22;100541.75;4462189;32;34409;-69
2022/01/15 05:37:37;;;;;;;10.02;5.10;;;;;;;8.95;47.27;100535.84;4462704;32;34186;-69
2022/01/15 05:40:06;;;;;;;7.37;3.62;;;;;;;8.96;47.89;100539.41;4475131;32;33488;-68
2022/01/15 05:42:34;;;;;;;5.12;3.75;;;;;;;9.17;46.94;100537.34;4462770;32;34297;-69
2022/01/15 05:45:01;;;;;;;6.70;3.75;;;;;;;8.77;48.44;100550.25;4461296;32;33609;-68
2022/01/15 05:47:29;;;;;;;5.07;3.47;;;;;;;8.66;48.16;100552.63;4462251;32;35029;-68
2022/01/15 05:49:56;;;;;;;8.48;3.30;;;;;;;8.42;49.28;100555.66;4463197;32;33732;-68
2022/01/15 05:52:24;;;;;;;5.45;3.97;;;;;;;8.52;49.63;100564.03;4459843;32;34464;-68
2022/01/15 05:54:51;;;;;;;8.43;4.07;;;;;;;8.46;48.94;100562.56;4460570;32;33160;-69
2022/01/15 05:57:19;;;;;;;9.55;4.47;;;;;;;8.61;48.38;100559.06;4454604;32;33867;-69
2022/01/15 05:59:47;;;;;;;6.55;3.17;;;;;;;8.72;47.73;100573.63;4457790;32;34095;-69
2022/01/15 06:02:14;;;;;;;5.82;4.00;;;;;;;8.98;48.07;100574.88;4460988;32;33825;-67
2022/01/15 06:04:42;;;;;;;8.27;4.25;;;;;;;8.30;48.69;100573.13;4463511;32;33174;-73
2022/01/15 06:07:09;;;;;;;4.10;2.17;;;;;;;8.26;48.92;100578.72;4463384;32;33719;-67
2022/01/15 06:09:37;;;;;;;9.68;4.80;;;;;;;8.55;48.25;100583.41;4464718;32;35059;-66
2022/01/15 06:12:05;;;;;;;7.68;4.00;;;;;;;8.75;47.01;100577.00;4464420;32;33797;-69
2022/01/15 06:14:37;;;;;;;5.87;3.92;;;;;;;8.77;47.42;100590.28;4463765;32;34261;-68
2022/01/15 06:17:08;;;;;;;5.75;3.40;;;;;;;8.66;48.10;100593.50;4463694;32;34730;-65
2022/01/15 06:19:36;;;;;;;6.53;3.95;;;;;;;8.85;47.93;100593.37;4463607;32;34330;-67
2022/01/15 06:22:04;;;;;;;9.40;3.78;;;;;;;8.97;47.38;100599.87;4464488;32;35463;-67
2022/01/15 06:24:32;;;;;;;6.00;4.25;;;;;;;8.95;47.27;100605.28;4464108;32;34291;-68
2022/01/15 06:26:59;;;;;;;7.18;4.25;;;;;;;9.59;44.77;100606.19;4465023;32;33815;-66
2022/01/15 06:29:27;;;;;;;5.55;3.35;;;;;;;9.71;44.52;100604.62;4461768;32;33926;-68
2022/01/15 06:31:55;;;;;;;4.28;2.83;;;;;;;9.04;46.48;100603.94;4463838;32;35467;-67
2022/01/15 06:34:22;;;;;;;7.90;4.65;;;;;;;9.45;45.83;100598.09;4459449;32;34587;-67
2022/01/15 06:36:50;;;;;;;6.85;4.60;;;;;;;8.93;47.54;100601.84;4463150;32;35490;-69
2022/01/15 06:39:18;;;;;;;6.55;4.12;;;;;;;8.90;47.01;100604.69;4464382;32;32704;-67
2022/01/15 06:41:45;;;;;;;6.95;4.10;;;;;;;9.36;45.85;100595.94;4461058;32;33826;-67
2022/01/15 06:44:13;;;;;;;8.20;4.75;;;;;;;9.37;45.90;100603.00;4463050;32;33518;-71
2022/01/15 06:46:40;;;;;;;6.43;3.40;;;;;;;9.66;45.38;100606.69;4463774;32;33673;-69
2022/01/15 06:49:10;;;;;;;5.87;4.03;;;;;;;9.65;44.93;100607.66;4463571;32;35089;-67
2022/01/15 06:51:37;;;;;;;4.82;3.17;;;;;;;9.80;44.49;100612.12;4461206;32;34942;-70
2022/01/15 06:54:05;;;;;;;5.68;3.67;;;;;;;9.97;44.63;100611.13;4464398;32;34029;-70
2022/01/15 06:56:33;;;;;;;7.47;4.85;;;;;;;10.37;42.63;100617.72;4462611;32;33949;-70
2022/01/15 06:59:01;;;;;;;8.93;4.12;;;;;;;10.63;42.57;100612.59;4462547;32;33718;-67
2022/01/15 07:01:29;;;;;;;11.02;5.57;;;;;;;11.18;41.24;100611.81;4464079;32;32665;-69
2022/01/15 07:03:57;;;;;;;5.62;3.12;;;;;;;11.46;40.33;100618.06;4462962;32;33072;-69
2022/01/15 07:06:24;;;;;;;7.97;5.18;;;;;;;10.96;41.22;100617.66;4464063;32;32751;-69
2022/01/15 07:08:52;;;;;;;10.98;6.85;;;;;;;11.62;40.03;100617.00;4463361;32;32437;-70
2022/01/15 07:11:20;;;;;;;11.20;6.75;;;;;;;11.80;39.44;100616.75;4463102;32;34586;-67
2022/01/15 07:13:48;;;;;;;8.65;6.53;;;;;;;12.18;38.76;100619.59;4460714;32;33335;-68
2022/01/15 07:16:15;;;;;;;7.35;5.12;;;;;;;11.95;38.99;100626.50;4461441;32;33454;-69
2022/01/15 07:18:43;;;;;;;10.05;5.43;;;;;;;12.50;38.10;100616.53;4462125;32;32864;-68
2022/01/15 07:21:12;;;;;;;10.13;7.35;;;;;;;12.60;37.55;100628.34;4465119;32;34831;-69
2022/01/15 07:23:40;;;;;;;10.48;5.78;;;;;;;11.95;39.10;100622.97;4461637;32;32587;-70
2022/01/15 07:26:07;;;;;;;9.35;5.93;;;;;;;11.99;39.50;100632.50;4464147;32;33657;-68
2022/01/15 07:28:35;;;;;;;7.68;4.93;;;;;;;12.63;37.91;100633.50;4462669;32;34854;-70
2022/01/15 07:31:03;;;;;;;9.35;6.32;;;;;;;13.17;37.06;100629.75;4461937;32;33785;-69
2022/01/15 07:33:31;;;;;;;10.98;6.47;;;;;;;14.16;35.04;100637.72;4464073;32;33172;-71
2022/01/15 07:35:58;;;;;;;9.13;5.75;;;;;;;13.99;34.90;100628.22;4460616;32;33912;-71
2022/01/15 07:38:26;;;;;;;8.73;4.70;;;;;;;13.56;35.55;100628.72;4459736;32;33944;-69
2022/01/15 07:40:56;;;;;;;9.70;6.10;;;;;;;12.51;37.09;100637.91;4462756;32;33612;-69
2022/01/15 07:43:25;;;;;;;10.00;6.28;;;;;;;12.88;36.63;100640.72;4464320;32;32978;-70
2022/01/15 07:45:53;;;;;;;8.48;5.53;;;;;;;12.46;37.71;100639.19;4463366;32;33721;-70
2022/01/15 07:48:21;;;;;;;8.52;5.37;;;;;;;12.88;37.03;100640.72;4464770;32;34065;-70
2022/01/15 07:50:53;;;;;;;7.97;5.82;;;;;;;12.96;37.05;100645.56;4464259;32;33706;-69
2022/01/15 07:53:21;;;;;;;12.43;7.72;;;;;;;14.23;34.83;100652.44;4463276;32;33166;-70
2022/01/15 07:55:48;;;;;;;9.63;6.80;;;;;;;14.25;34.27;100658.53;4462500;32;33978;-69
2022/01/15 07:58:16;;;;;;;9.98;5.87;;;;;;;13.71;35.30;100661.72;4460459;32;34825;-70
2022/01/15 08:00:44;;;;;;;11.70;6.80;;;;;;;13.85;35.00;100658.00;4460125;32;34947;-68
2022/01/15 08:03:12;;;;;;;11.12;6.75;;;;;;;14.10;34.78;100668.66;4464877;32;33128;-69
2022/01/15 08:05:39;;;;;;;9.18;6.47;;;;;;;15.10;32.38;100661.88;4464815;32;33708;-70
2022/01/15 08:08:07;;;;;;;9.73;6.40;;;;;;;14.99;32.37;100666.38;4463795;32;33650;-70
2022/01/15 08:10:35;;;;;;;10.40;6.37;;;;;;;14.88;33.10;100668.09;4459257;32;33969;-68
2022/01/15 08:13:03;;;;;;;9.48;5.95;;;;;;;13.72;34.71;100668.81;4463468;32;34461;-70
2022/01/15 08:15:31;;;;;;;13.15;7.70;;;;;;;12.28;37.49;100676.19;4459006;32;32701;-69
2022/01/15 08:18:00;;;;;;;11.43;6.18;;;;;;;13.00;35.89;100677.50;4462923;32;33991;-70
2022/01/15 08:20:28;;;;;;;8.93;5.22;;;;;;;13.14;36.37;100676.50;4462368;32;33753;-69
2022/01/15 08:22:56;;;;;;;10.52;5.90;;;;;;;12.47;37.11;100679.34;4465000;32;33565;-71
2022/01/15 08:25:24;;;;;;;7.68;4.18;;;;;;;12.96;36.09;100683.16;4466310;32;33681;-71
2022/01/15 08:27:52;;;;;;;11.23;6.00;;;;;;;14.04;34.36;100681.72;4463356;32;35121;-68
2022/01/15 08:30:21;;;;;;;12.57;5.30;;;;;;;15.83;31.27;100679.41;4464321;32;32338;-70
2022/01/15 08:32:49;;;;;;;10.13;5.43;;;;;;;15.08;31.73;100684.53;4460427;32;32026;-69
2022/01/15 08:35:17;;;;;;;11.48;6.03;;;;;;;15.40;31.28;100679.28;4463180;32;33894;-69
2022/01/15 08:37:44;;;;;;;10.00;6.32;;;;;;;15.87;30.67;100681.84;4466436;32;35132;-71
2022/01/15 08:40:14;;;;;;;13.18;6.43;;;;;;;15.24;31.78;100676.09;4465427;32;33807;-71
2022/01/15 08:42:41;;;;;;;11.60;5.68;;;;;;;17.59;27.89;100673.38;4462093;32;33316;-68
2022/01/15 08:45:10;;;;;;;13.60;7.28;;;;;;;17.48;28.04;100666.25;4466437;32;33867;-69
2022/01/15 08:47:38;;;;;;;15.80;7.12;;;;;;;16.81;28.87;100674.84;4467155;32;34928;-68
2022/01/15 08:50:08;;;;;;;9.55;5.65;;;;;;;15.71;30.89;100672.31;4465503;32;32381;-70
2022/01/15 08:52:36;;;;;;;10.27;6.32;;;;;;;15.03;31.77;100682.22;4462878;32;33187;-71
2022/01/15 08:55:06;;;;;;;14.80;7.65;;;;;;;17.18;28.56;100669.81;4465399;32;33938;-68
2022/01/15 08:57:34;;;;;;;11.65;5.45;;;;;;;16.81;28.83;100664.91;4465284;32;35016;-70
2022/01/15 09:00:06;;;;;;;12.95;6.00;;;;;;;15.64;29.87;100668.34;4461790;32;33857;-71
2022/01/15 09:02:34;;;;;;;12.35;6.00;;;;;;;15.35;30.89;100668.00;4462647;32;33802;-68
2022/01/15 09:05:03;;;;;;;12.77;5.80;;;;;;;13.31;34.12;100682.56;4466011;32;34718;-68
2022/01/15 09:07:34;;;;;;;11.12;5.93;;;;;;;14.76;32.31;100670.87;4447724;32;33735;-70
2022/01/15 09:10:03;;;;;;;11.05;7.20;;;;;;;13.78;33.70;100670.19;4465565;32;32723;-70
2022/01/15 09:12:31;;;;;;;9.25;5.28;;;;;;;12.47;35.48;100671.31;4462050;32;34179;-69
2022/01/15 09:15:19;;;;;;;9.50;4.28;;;;;;;13.14;35.59;100681.03;4462995;32;32254;-68
2022/01/15 09:17:47;;;;;;;9.55;5.80;;;;;;;13.88;33.15;100674.78;4464118;32;33962;-67
2022/01/15 09:20:15;;;;;;;8.88;4.22;;;;;;;12.03;36.86;100680.50;4464794;32;32539;-69
2022/01/15 09:22:43;;;;;;;9.23;5.05;;;;;;;13.98;33.24;100672.25;4465337;32;34546;-68
2022/01/15 09:25:11;;;;;;;10.63;4.53;;;;;;;15.54;30.42;100670.94;4463558;32;35035;-70
2022/01/15 09:30:25;;;;;;;12.52;6.78;;;;;;;15.83;29.72;100670.44;4462208;32;33632;-68
2022/01/15 09:32:53;;;;;;;8.80;4.62;;;;;;;15.65;29.26;100656.56;4465181;32;33315;-71
2022/01/15 09:35:26;;;;;;;9.07;4.90;;;;;;;13.68;32.21;100667.31;4464223;32;33952;-69
2022/01/15 09:37:55;;;;;;;9.85;4.45;;;;;;;14.93;31.00;100664.16;4463361;32;33879;-67
2022/01/15 09:40:25;;;;;;;9.02;4.95;;;;;;;13.96;31.81;100660.75;4466893;32;34630;-70
2022/01/15 09:42:53;;;;;;;16.10;8.55;;;;;;;15.09;30.67;100660.16;4464044;32;33124;-69
2022/01/15 09:45:23;;;;;;;10.90;6.40;;;;;;;13.85;32.65;100661.53;4467536;32;33810;-71
2022/01/15 09:47:58;;;;;;;14.65;6.50;;;;;;;15.54;29.85;100648.50;4466767;32;34127;-70
2022/01/15 09:50:28;;;;;;;9.50;4.22;;;;;;;15.13;30.39;100644.59;4470180;32;34910;-69
2022/01/15 09:52:56;;;;;;;14.75;5.10;;;;;;;15.28;29.85;100642.50;4466455;32;34320;-69
2022/01/15 09:55:25;;;;;;;9.40;4.32;;;;;;;14.48;30.74;100650.56;4465697;32;33864;-71
2022/01/15 09:57:54;;;;;;;12.48;6.18;;;;;;;11.87;34.50;100645.75;4464433;32;32584;-69
2022/01/15 10:00:23;;;;;;;9.00;3.97;;;;;;;13.35;32.73;100641.03;4464832;32;34568;-69
2022/01/15 10:02:51;;;;;;;7.20;3.45;;;;;;;12.26;33.15;100638.72;4466171;32;33255;-69
2022/01/15 10:05:20;;;;;;;7.72;4.12;;;;;;;12.05;33.66;100643.69;4465649;32;33887;-70
2022/01/15 10:07:56;;;;;;;8.75;3.35;;;;;;;12.12;34.40;100644.16;4465104;32;34033;-70
2022/01/15 10:10:26;;;;;;;11.80;4.82;;;;;;;12.14;34.06;100630.66;4464545;32;32599;-70
2022/01/15 10:12:54;;;;;;;8.45;3.97;;;;;;;14.38;30.34;100634.25;4464654;32;34440;-70
2022/01/15 10:15:22;;;;;;;10.85;4.53;;;;;;;13.96;30.59;100641.91;4466128;32;33786;-68
2022/01/15 10:17:50;;;;;;;8.55;3.90;;;;;;;14.43;29.53;100642.84;4463400;32;35355;-69
2022/01/15 10:20:22;;;;;;;10.00;3.67;;;;;;;14.87;29.40;100627.78;4467812;32;35067;-71
2022/01/15 10:22:51;;;;;;;9.00;3.58;;;;;;;16.16;26.95;100618.16;4465431;32;31978;-69
2022/01/15 10:25:21;;;;;;;7.87;3.37;;;;;;;16.03;27.78;100626.44;4466568;32;33839;-70
2022/01/15 10:27:54;;;;;;;11.93;4.00;;;;;;;17.35;25.49;100633.16;4465366;32;33785;-70
2022/01/15 10:30:25;;;;;;;10.98;3.87;;;;;;;16.14;26.07;100630.94;4465848;32;33755;-70
2022/01/15 10:33:07;;;;;;;9.70;3.75;;;;;;;16.50;25.59;100621.56;4466407;32;34509;-68
2022/01/15 10:35:40;;;;;;;8.90;3.80;;;;;;;15.33;27.30;100634.91;4466829;32;34934;-69
2022/01/15 10:38:13;;;;;;;10.00;3.92;;;;;;;16.41;26.08;100630.47;4464162;32;34061;-70
2022/01/15 10:40:53;;;;;;;11.25;3.62;;;;;;;15.06;27.75;100633.44;4465250;32;33868;-69
2022/01/15 10:43:31;;;;;;;17.90;11.12;;;;;;;16.01;27.04;100636.50;4466526;32;33769;-69
2022/01/15 10:46:02;;;;;;;12.70;7.75;;;;;;;16.03;27.05;100631.00;4463359;32;34317;-71
2022/01/15 10:48:35;;;;;;;7.65;3.75;;;;;;;15.79;25.98;100623.97;4467068;32;33704;-70
2022/01/15 10:51:10;;;;;;;8.32;3.47;;;;;;;15.96;26.09;100621.69;4465055;32;33558;-71
2022/01/15 10:53:42;;;;;;;;;;;;;;;16.20;25.76;100621.47;4461971;32;32168;-70
2022/01/15 10:56:11;;;;;;;8.45;4.37;;;;;;;16.38;25.63;100616.37;4465504;32;34115;-69
2022/01/15 10:58:42;;;;;;;6.70;2.80;;;;;;;14.04;29.61;100622.50;4461338;32;34819;-70
2022/01/15 11:01:14;;;;;;;10.20;5.45;;;;;;;13.68;30.11;100618.91;4463661;32;33022;-70
2022/01/15 11:03:44;;;;;;;13.50;6.57;;;;;;;14.21;29.25;100614.84;4464603;32;32971;-69
2022/01/15 11:06:12;;;;;;;30.35;24.85;;;;;;;15.36;28.31;100616.63;4465864;32;34998;-69
2022/01/15 11:08:42;;;;;;;10.55;5.55;;;;;;;16.09;27.11;100603.47;4464476;32;33886;-71
2022/01/15 11:11:13;;;;;;;10.98;5.30;;;;;;;16.16;26.54;100601.12;4464808;32;34744;-69
2022/01/15 11:13:46;;;;;;;14.85;8.10;;;;;;;16.11;26.17;100593.37;4463162;32;34740;-70
2022/01/15 11:16:16;;;;;;;11.50;3.58;;;;;;;15.67;27.03;100603.37;4460296;32;35422;-71
2022/01/15 11:18:49;;;;;;;10.00;4.43;;;;;;;14.21;28.56;100598.69;4466426;32;35095;-71
2022/01/15 11:21:19;;;;;;;11.80;3.92;;;;;;;15.20;27.54;100583.78;4465524;32;33938;-70
2022/01/15 11:23:49;;;;;;;11.00;4.35;;;;;;;14.09;28.67;100599.66;4464702;32;33452;-68
2022/01/15 11:26:21;;;;;;;15.65;7.32;;;;;;;14.52;28.45;100590.13;4466145;32;33891;-69
2022/01/15 11:28:49;;;;;;;17.75;10.70;;;;;;;14.78;28.51;100601.56;4462782;32;33932;-69
2022/01/15 11:31:23;;;;;;;8.82;4.57;;;;;;;14.81;27.89;100595.94;4465393;32;34108;-71
2022/01/15 11:34:00;;;;;;;9.05;3.67;;;;;;;15.30;27.13;100584.75;4465081;32;33389;-69
2022/01/15 11:36:31;;;;;;;8.40;3.87;;;;;;;14.61;28.15;100590.28;4465071;32;32385;-68
2022/01/15 11:39:03;;;;;;;6.32;3.33;;;;;;;14.16;29.47;100590.13;4465147;32;32774;-69
2022/01/15 11:41:30;;;;;;;8.50;4.50;;;;;;;14.33;29.33;100598.75;4463422;32;33817;-71
2022/01/15 11:43:59;;;;;;;8.82;4.05;;;;;;;13.93;29.98;100602.66;4466975;32;34497;-70
2022/01/15 11:46:47;;;;;;;12.60;4.62;;;;;;;12.80;32.15;100600.09;4468357;32;33661;-70
2022/01/15 11:49:23;;;;;;;12.37;3.75;;;;;;;13.07;33.28;100607.19;4467820;32;34069;-70
2022/01/15 11:52:09;;;;;;;8.65;3.67;;;;;;;13.00;31.81;100598.69;4461640;32;34552;-70
2022/01/15 11:54:41;;;;;;;7.53;3.25;;;;;;;12.87;33.07;100604.06;4462168;32;34204;-71